createdAt,value
2019-02-01T00:02:20.661Z,5.03
2019-02-01T00:04:50.630Z,5.03
2019-02-01T00:07:20.726Z,5.40
2019-02-01T00:09:50.784Z,5.03
2019-02-01T00:12:21.035Z,5.50
2019-02-01T00:14:51.181Z,4.60
2019-02-01T00:17:21.304Z,4.50
2019-02-01T00:19:51.722Z,4.83
2019-02-01T00:22:21.742Z,5.10
2019-02-01T00:24:52.083Z,5.07
2019-02-01T00:27:22.045Z,5.40
2019-02-01T00:29:52.123Z,5.10
2019-02-01T00:32:22.218Z,4.83
2019-02-01T00:34:52.112Z,4.40
2019-02-01T00:37:22.258Z,4.50
2019-02-01T00:39:52.355Z,4.50
2019-02-01T00:42:22.362Z,4.80
2019-02-01T00:44:52.364Z,4.80
2019-02-01T00:47:22.349Z,4.47
2019-02-01T00:49:52.330Z,4.40
2019-02-01T00:52:22.416Z,3.70
2019-02-01T00:54:52.508Z,4.23
2019-02-01T00:57:22.659Z,4.90
2019-02-01T00:59:52.743Z,4.57
2019-02-01T01:02:22.911Z,4.47
2019-02-01T01:04:53.038Z,4.70
2019-02-01T01:07:23.123Z,5.05
2019-02-01T01:09:53.287Z,3.90
2019-02-01T01:12:23.526Z,4.70
2019-02-01T01:14:53.757Z,4.80
2019-02-01T01:17:23.919Z,4.50
2019-02-01T01:19:53.865Z,4.58
2019-02-01T01:22:23.879Z,5.00
2019-02-01T01:24:54.044Z,3.90
2019-02-01T01:27:24.043Z,4.90
2019-02-01T01:29:54.327Z,4.50
2019-02-01T01:32:24.614Z,4.08
2019-02-01T01:34:54.644Z,4.50
2019-02-01T01:37:24.808Z,4.40
2019-02-01T01:39:54.999Z,4.30
2019-02-01T01:42:25.240Z,4.67
2019-02-01T01:45:17.036Z,4.87
2019-02-01T01:47:47.522Z,4.27
2019-02-01T01:50:19.224Z,4.00
2019-02-01T01:52:50.664Z,3.67
2019-02-01T01:55:21.179Z,3.90
2019-02-01T01:57:51.419Z,3.50
2019-02-01T02:00:31.044Z,4.00
2019-02-01T02:03:01.316Z,4.50
2019-02-01T02:05:31.357Z,3.58
2019-02-01T02:08:01.709Z,4.70
2019-02-01T02:10:31.747Z,4.17
2019-02-01T02:13:01.853Z,5.15
2019-02-01T02:15:32.070Z,4.30
2019-02-01T02:18:02.283Z,3.70
2019-02-01T02:20:32.435Z,4.12
2019-02-01T02:23:02.559Z,4.17
2019-02-01T02:25:32.631Z,4.60
2019-02-01T02:28:02.800Z,4.33
2019-02-01T02:30:32.865Z,4.04
2019-02-01T02:33:02.958Z,4.30
2019-02-01T02:35:32.862Z,3.80
2019-02-01T02:38:03.032Z,3.22
2019-02-01T02:40:33.151Z,3.87
2019-02-01T02:43:03.241Z,3.37
2019-02-01T02:45:33.306Z,4.10
2019-02-01T02:48:03.501Z,3.53
2019-02-01T02:50:33.582Z,3.50
2019-02-01T02:53:03.693Z,4.30
2019-02-01T02:55:34.007Z,3.67
2019-02-01T02:58:04.208Z,3.70
2019-02-01T03:00:34.304Z,3.30
2019-02-01T03:03:04.854Z,4.20
2019-02-01T03:05:34.944Z,4.33
2019-02-01T03:08:05.527Z,4.05
2019-02-01T03:10:35.563Z,4.03
2019-02-01T03:13:05.929Z,4.03
2019-02-01T03:15:36.083Z,3.23
2019-02-01T03:18:06.549Z,3.60
2019-02-01T03:20:36.679Z,4.17
2019-02-01T03:23:06.636Z,3.17
2019-02-01T03:25:36.579Z,3.57
2019-02-01T03:28:06.607Z,3.50
2019-02-01T03:30:36.602Z,3.87
2019-02-01T03:33:06.680Z,4.10
2019-02-01T03:35:36.637Z,3.77
2019-02-01T03:38:06.739Z,3.90
2019-02-01T03:40:36.637Z,3.40
2019-02-01T03:43:06.605Z,3.92
2019-02-01T03:45:36.750Z,4.20
2019-02-01T03:48:06.903Z,3.83
2019-02-01T03:50:37.010Z,4.50
2019-02-01T03:53:07.290Z,4.17
2019-02-01T03:55:37.234Z,4.90
2019-02-01T03:58:07.314Z,4.73
2019-02-01T04:00:37.254Z,4.63
2019-02-01T04:03:07.236Z,4.40
2019-02-01T04:05:37.239Z,4.40
2019-02-01T04:08:07.344Z,4.03
2019-02-01T04:10:37.598Z,3.97
2019-02-01T04:13:07.730Z,3.40
2019-02-01T04:15:37.843Z,3.37
2019-02-01T04:18:07.884Z,4.40
2019-02-01T04:20:37.828Z,3.98
2019-02-01T04:23:07.871Z,5.30
2019-02-01T04:25:37.846Z,4.17
2019-02-01T04:28:07.815Z,4.67
2019-02-01T04:30:37.809Z,4.40
2019-02-01T04:33:08.081Z,4.30
2019-02-01T04:35:38.056Z,4.27
2019-02-01T04:38:08.001Z,4.33
2019-02-01T04:40:37.954Z,4.87
2019-02-01T04:43:08.023Z,5.07
2019-02-01T04:45:38.138Z,4.72
2019-02-01T04:48:08.082Z,5.03
2019-02-01T04:50:38.077Z,3.98
2019-02-01T04:53:08.057Z,4.47
2019-02-01T04:55:38.114Z,4.37
2019-02-01T04:58:08.201Z,4.10
2019-02-01T05:00:38.438Z,5.03
2019-02-01T05:03:08.523Z,4.57
2019-02-01T05:05:38.700Z,5.17
2019-02-01T05:08:08.756Z,4.47
2019-02-01T05:10:38.742Z,3.52
2019-02-01T05:13:08.736Z,5.23
2019-02-01T05:15:38.709Z,4.70
2019-02-01T05:18:08.644Z,4.95
2019-02-01T05:20:38.730Z,4.28
2019-02-01T05:23:08.789Z,4.60
2019-02-01T05:25:38.684Z,4.15
2019-02-01T05:28:08.793Z,4.72
2019-02-01T05:30:38.739Z,4.67
2019-02-01T05:33:08.749Z,4.47
2019-02-01T05:35:38.685Z,3.87
2019-02-01T05:38:08.729Z,4.00
2019-02-01T05:40:38.751Z,3.80
2019-02-01T05:43:08.941Z,4.57
2019-02-01T05:45:38.976Z,4.47
2019-02-01T05:48:08.932Z,4.40
2019-02-01T05:50:38.826Z,4.70
2019-02-01T05:53:08.820Z,3.98
2019-02-01T05:55:38.750Z,3.33
2019-02-01T05:58:08.665Z,3.87
2019-02-01T06:00:42.300Z,3.72
2019-02-01T06:03:12.381Z,3.50
2019-02-01T06:05:42.604Z,3.83
2019-02-01T06:08:12.578Z,3.77
2019-02-01T06:10:45.081Z,4.75
2019-02-01T06:13:15.160Z,4.15
2019-02-01T06:15:45.405Z,3.60
2019-02-01T06:18:15.436Z,4.50
2019-02-01T06:20:45.422Z,4.30
2019-02-01T06:23:15.322Z,3.77
2019-02-01T06:25:45.486Z,4.10
2019-02-01T06:28:15.586Z,3.90
2019-02-01T06:30:45.782Z,5.00
2019-02-01T06:33:15.927Z,4.60
2019-02-01T06:35:46.122Z,3.90
2019-02-01T06:38:16.054Z,4.10
2019-02-01T06:40:46.221Z,4.50
2019-02-01T06:43:16.155Z,4.07
2019-02-01T06:45:46.280Z,6.00
2019-02-01T06:48:16.485Z,4.40
2019-02-01T06:51:11.357Z,5.50
2019-02-01T06:53:41.241Z,4.53
2019-02-01T06:56:11.320Z,4.93
2019-02-01T06:58:41.280Z,4.37
2019-02-01T07:01:11.250Z,3.70
2019-02-01T07:03:55.891Z,5.43
2019-02-01T07:06:53.853Z,4.53
2019-02-01T07:09:57.670Z,4.15
2019-02-01T07:12:33.681Z,5.20
2019-02-01T07:15:41.188Z,5.30
2019-02-01T07:18:16.739Z,5.50
2019-02-01T07:21:09.593Z,4.67
2019-02-01T07:24:05.623Z,5.42
2019-02-01T07:26:54.087Z,39.80
2019-02-01T07:29:35.752Z,9.70
2019-02-01T07:32:24.937Z,6.87
2019-02-01T07:34:54.982Z,5.30
2019-02-01T07:37:24.882Z,5.07
2019-02-01T07:39:54.898Z,5.20
2019-02-01T07:42:25.070Z,6.27
2019-02-01T07:44:55.162Z,6.37
2019-02-01T07:47:25.276Z,5.80
2019-02-01T07:49:55.156Z,6.20
2019-02-01T07:52:25.285Z,6.47
2019-02-01T07:54:55.398Z,6.85
2019-02-01T07:57:25.539Z,4.53
2019-02-01T07:59:55.631Z,6.57
2019-02-01T08:02:25.723Z,5.23
2019-02-01T08:04:55.673Z,6.10
2019-02-01T08:07:25.916Z,6.35
2019-02-01T08:09:55.891Z,5.07
2019-02-01T08:12:26.029Z,6.00
2019-02-01T08:14:56.212Z,5.40
2019-02-01T08:17:26.280Z,6.00
2019-02-01T08:19:56.227Z,5.17
2019-02-01T08:22:26.336Z,5.90
2019-02-01T08:24:57.321Z,6.77
2019-02-01T08:27:27.524Z,7.33
2019-02-01T08:29:57.719Z,8.07
2019-02-01T08:32:27.737Z,10.68
2019-02-01T08:34:57.815Z,13.45
2019-02-01T08:37:27.717Z,12.23
2019-02-01T08:39:57.668Z,13.78
2019-02-01T08:42:27.579Z,13.70
2019-02-01T08:44:57.697Z,14.77
2019-02-01T08:47:27.672Z,16.30
2019-02-01T08:49:57.613Z,16.20
2019-02-01T08:52:27.529Z,19.23
2019-02-01T08:54:59.229Z,17.47
2019-02-01T08:57:29.214Z,14.65
2019-02-01T08:59:59.309Z,15.80
2019-02-01T09:02:29.496Z,15.78
2019-02-01T09:04:59.427Z,15.60
2019-02-01T09:07:29.563Z,16.97
2019-02-01T09:09:59.684Z,15.10
2019-02-01T09:12:29.746Z,16.50
2019-02-01T09:14:59.944Z,16.77
2019-02-01T09:17:30.109Z,17.47
2019-02-01T09:20:00.178Z,16.60
2019-02-01T09:22:30.527Z,16.57
2019-02-01T09:25:00.785Z,17.77
2019-02-01T09:27:30.846Z,16.10
2019-02-01T09:30:01.038Z,18.70
2019-02-01T09:32:31.243Z,17.43
2019-02-01T09:35:01.147Z,15.00
2019-02-01T09:37:31.456Z,19.23
2019-02-01T09:40:01.695Z,18.23
2019-02-01T09:42:31.665Z,15.77
2019-02-01T09:45:01.762Z,16.90
2019-02-01T09:47:32.017Z,17.07
2019-02-01T09:50:02.004Z,17.83
2019-02-01T09:52:32.140Z,17.83
2019-02-01T09:55:02.275Z,18.90
2019-02-01T09:57:32.240Z,18.20
2019-02-01T10:00:02.153Z,16.67
2019-02-01T10:02:32.516Z,18.67
2019-02-01T10:05:02.659Z,16.10
2019-02-01T10:07:33.821Z,15.63
2019-02-01T10:10:04.835Z,17.90
2019-02-01T10:12:34.875Z,16.87
2019-02-01T10:15:07.211Z,15.83
2019-02-01T10:17:37.254Z,17.97
2019-02-01T10:20:08.594Z,17.50
2019-02-01T10:22:38.808Z,19.57
2019-02-01T10:25:10.154Z,19.37
2019-02-01T10:27:40.272Z,17.65
2019-02-01T10:30:15.265Z,16.53
2019-02-01T10:32:45.276Z,17.07
2019-02-01T10:35:16.324Z,17.17
2019-02-01T10:37:46.890Z,17.93
2019-02-01T10:40:17.566Z,23.17
2019-02-01T10:42:47.725Z,15.37
2019-02-01T10:45:19.383Z,17.15
2019-02-01T10:47:53.522Z,16.97
2019-02-01T10:50:24.022Z,17.00
2019-02-01T10:52:54.378Z,17.37
2019-02-01T10:55:24.464Z,15.87
2019-02-01T10:57:54.695Z,17.87
2019-02-01T11:00:26.954Z,16.43
2019-02-01T11:02:57.130Z,17.37
2019-02-01T11:05:30.700Z,16.90
2019-02-01T11:08:00.735Z,18.67
2019-02-01T11:10:30.843Z,16.65
2019-02-01T11:13:00.945Z,18.07
2019-02-01T11:15:31.034Z,20.33
2019-02-01T11:18:01.257Z,15.37
2019-02-01T11:20:31.351Z,16.40
2019-02-01T11:23:01.428Z,16.60
2019-02-01T11:25:31.595Z,16.12
2019-02-01T11:28:01.690Z,16.70
2019-02-01T11:30:31.796Z,16.47
2019-02-01T11:33:01.832Z,16.33
2019-02-01T11:35:31.944Z,16.17
2019-02-01T11:38:02.018Z,16.82
2019-02-01T11:40:32.114Z,16.20
2019-02-01T11:43:02.055Z,15.32
2019-02-01T11:45:32.229Z,18.03
2019-02-01T11:48:02.346Z,17.90
2019-02-01T11:50:32.543Z,16.10
2019-02-01T11:53:02.581Z,16.70
2019-02-01T11:55:32.501Z,16.07
2019-02-01T11:58:02.596Z,18.33
2019-02-01T12:00:32.762Z,17.60
2019-02-01T12:03:02.935Z,15.33
2019-02-01T12:05:34.117Z,18.37
2019-02-01T12:08:05.683Z,16.00
2019-02-01T12:10:35.577Z,17.97
2019-02-01T12:13:05.778Z,16.42
2019-02-01T12:15:35.675Z,16.20
2019-02-01T12:18:05.846Z,14.60
2019-02-01T12:20:35.965Z,15.72
2019-02-01T12:23:06.125Z,16.20
2019-02-01T12:25:36.241Z,15.53
2019-02-01T12:28:06.418Z,17.10
2019-02-01T12:30:36.810Z,16.25
2019-02-01T12:33:07.004Z,18.00
2019-02-01T12:35:37.159Z,18.17
2019-02-01T12:38:07.208Z,17.83
2019-02-01T12:40:37.384Z,16.37
2019-02-01T12:43:07.449Z,15.83
2019-02-01T12:45:38.163Z,15.60
2019-02-01T12:48:08.643Z,15.80
2019-02-01T12:50:38.607Z,15.05
2019-02-01T12:53:11.611Z,16.33
2019-02-01T12:55:40.394Z,16.87
2019-02-01T12:58:10.474Z,15.25
2019-02-01T13:00:41.595Z,13.90
2019-02-01T13:03:13.618Z,14.50
2019-02-01T13:05:44.931Z,16.73
2019-02-01T13:08:15.001Z,15.90
2019-02-01T13:10:45.081Z,16.07
2019-02-01T13:13:15.238Z,15.73
2019-02-01T13:15:45.415Z,16.95
2019-02-01T13:18:15.505Z,16.42
2019-02-01T13:20:45.658Z,14.55
2019-02-01T13:23:22.861Z,15.60
2019-02-01T13:25:47.484Z,18.05
2019-02-01T13:28:18.610Z,14.30
2019-02-01T13:30:48.904Z,15.30
2019-02-01T13:33:18.989Z,15.37
2019-02-01T13:35:49.000Z,13.60
2019-02-01T13:38:19.164Z,16.37
2019-02-01T13:40:49.242Z,15.70
2019-02-01T13:43:19.190Z,15.07
2019-02-01T13:46:00.484Z,15.83
2019-02-01T13:48:21.203Z,15.40
2019-02-01T13:50:51.184Z,14.60
2019-02-01T13:53:21.196Z,13.43
2019-02-01T13:55:51.043Z,14.55
2019-02-01T13:58:21.033Z,12.47
2019-02-01T14:00:51.181Z,14.07
2019-02-01T14:03:21.180Z,14.10
2019-02-01T14:05:51.284Z,15.00
2019-02-01T14:08:21.406Z,14.57
2019-02-01T14:10:51.452Z,14.93
2019-02-01T14:13:21.561Z,12.80
2019-02-01T14:15:51.630Z,13.87
2019-02-01T14:18:21.752Z,16.53
2019-02-01T14:20:51.840Z,13.97
2019-02-01T14:23:47.090Z,13.27
2019-02-01T14:26:16.622Z,13.87
2019-02-01T14:28:46.761Z,14.07
2019-02-01T14:31:16.945Z,13.90
2019-02-01T14:33:47.053Z,13.23
2019-02-01T14:36:17.028Z,15.43
2019-02-01T14:38:47.061Z,14.35
2019-02-01T14:41:17.112Z,14.60
2019-02-01T14:43:47.134Z,12.53
2019-02-01T14:46:17.106Z,12.90
2019-02-01T14:48:47.266Z,13.13
2019-02-01T14:51:17.509Z,14.30
2019-02-01T14:53:57.989Z,14.23
2019-02-01T14:56:19.317Z,14.30
2019-02-01T14:58:49.355Z,14.35
2019-02-01T15:01:19.407Z,13.50
2019-02-01T15:03:49.341Z,13.55
2019-02-01T15:06:19.394Z,12.70
2019-02-01T15:08:49.375Z,13.67
2019-02-01T15:11:19.613Z,14.27
2019-02-01T15:13:49.808Z,12.98
2019-02-01T15:16:37.324Z,13.87
2019-02-01T15:18:51.475Z,14.17
2019-02-01T15:21:21.440Z,15.20
2019-02-01T15:23:51.419Z,13.40
2019-02-01T15:26:21.947Z,12.57
2019-02-01T15:28:52.020Z,14.87
2019-02-01T15:31:23.175Z,13.67
2019-02-01T15:33:53.897Z,14.35
2019-02-01T15:36:24.088Z,14.70
2019-02-01T15:38:54.732Z,15.47
2019-02-01T15:41:24.779Z,16.90
2019-02-01T15:43:54.932Z,14.20
2019-02-01T15:46:24.956Z,13.50
2019-02-01T15:48:54.862Z,14.07
2019-02-01T15:51:25.265Z,13.73
2019-02-01T15:53:55.461Z,16.10
2019-02-01T15:56:25.492Z,15.10
2019-02-01T15:58:55.438Z,15.13
2019-02-01T16:01:25.990Z,15.10
2019-02-01T16:03:56.116Z,15.78
2019-02-01T16:06:26.254Z,16.33
2019-02-01T16:08:56.209Z,14.68
2019-02-01T16:11:28.618Z,15.67
2019-02-01T16:13:58.122Z,13.87
2019-02-01T16:16:28.088Z,15.40
2019-02-01T16:18:58.003Z,14.47
2019-02-01T16:21:27.969Z,16.00
2019-02-01T16:24:06.219Z,15.50
2019-02-01T16:26:29.708Z,13.25
2019-02-01T16:28:59.753Z,15.23
2019-02-01T16:31:29.812Z,17.35
2019-02-01T16:33:59.847Z,16.35
2019-02-01T16:36:29.829Z,15.45
2019-02-01T16:39:05.676Z,15.25
2019-02-01T16:41:31.484Z,15.07
2019-02-01T16:44:01.554Z,15.97
2019-02-01T16:46:31.660Z,14.43
2019-02-01T16:49:01.706Z,16.53
2019-02-01T16:51:31.659Z,15.30
2019-02-01T16:54:01.712Z,15.33
2019-02-01T16:56:31.829Z,15.25
2019-02-01T16:59:07.495Z,14.80
2019-02-01T17:01:33.416Z,19.77
2019-02-01T17:04:03.444Z,16.23
2019-02-01T17:06:33.398Z,15.90
2019-02-01T17:09:04.077Z,14.20
2019-02-01T17:11:34.091Z,16.90
2019-02-01T17:14:04.752Z,16.40
2019-02-01T17:16:34.641Z,16.55
2019-02-01T17:19:04.626Z,15.60
2019-02-01T17:21:34.771Z,17.67
2019-02-01T17:24:04.781Z,17.10
2019-02-01T17:26:36.035Z,15.45
2019-02-01T17:29:06.275Z,17.20
2019-02-01T17:31:36.474Z,16.17
2019-02-01T17:34:06.671Z,15.93
2019-02-01T17:36:36.621Z,15.18
2019-02-01T17:39:09.694Z,15.53
2019-02-01T17:41:40.578Z,15.96
2019-02-01T17:44:10.577Z,16.00
2019-02-01T17:46:40.568Z,16.52
2019-02-01T17:49:10.688Z,17.43
2019-02-01T17:51:50.529Z,16.40
2019-02-01T17:54:12.333Z,15.50
2019-02-01T17:56:42.437Z,15.07
2019-02-01T17:59:12.506Z,14.95
2019-02-01T18:01:42.672Z,17.63
2019-02-01T18:04:12.758Z,17.33
2019-02-01T18:06:42.703Z,16.73
2019-02-01T18:09:12.795Z,15.70
2019-02-01T18:11:42.792Z,22.60
2019-02-01T18:14:12.795Z,16.73
2019-02-01T18:16:42.859Z,16.43
2019-02-01T18:19:12.823Z,16.73
2019-02-01T18:21:42.824Z,17.15
2019-02-01T18:24:12.742Z,17.43
2019-02-01T18:26:42.896Z,16.60
2019-02-01T18:29:12.779Z,16.65
2019-02-01T18:31:42.725Z,16.43
2019-02-01T18:34:12.718Z,16.37
2019-02-01T18:36:42.810Z,16.00
2019-02-01T18:39:12.796Z,17.23
2019-02-01T18:41:42.685Z,18.20
2019-02-01T18:44:12.580Z,16.80
2019-02-01T18:46:42.521Z,17.43
2019-02-01T18:49:12.509Z,15.87
2019-02-01T18:51:42.444Z,18.50
2019-02-01T18:54:12.465Z,16.70
2019-02-01T18:56:42.447Z,16.30
2019-02-01T18:59:12.451Z,48.23
2019-02-01T19:01:42.539Z,20.73
2019-02-01T19:04:12.445Z,18.17
2019-02-01T19:06:42.442Z,17.33
2019-02-01T19:09:12.498Z,16.90
2019-02-01T19:11:43.164Z,17.40
2019-02-01T19:14:13.363Z,17.70
2019-02-01T19:16:43.327Z,17.00
2019-02-01T19:19:13.270Z,17.13
2019-02-01T19:21:43.207Z,18.00
2019-02-01T19:24:13.391Z,16.23
2019-02-01T19:26:43.306Z,17.20
2019-02-01T19:29:13.390Z,16.90
2019-02-01T19:31:43.614Z,18.47
2019-02-01T19:34:13.682Z,16.57
2019-02-01T19:36:43.836Z,16.00
2019-02-01T19:39:14.005Z,15.55
2019-02-01T19:41:44.094Z,17.10
2019-02-01T19:44:14.133Z,19.20
2019-02-01T19:46:46.081Z,17.80
2019-02-01T19:49:15.749Z,21.80
2019-02-01T19:51:45.803Z,24.77
2019-02-01T19:54:15.779Z,18.37
2019-02-01T19:56:45.655Z,15.90
2019-02-01T19:59:15.684Z,18.10
2019-02-01T20:01:45.663Z,18.80
2019-02-01T20:04:15.905Z,22.03
2019-02-01T20:06:45.857Z,24.60
2019-02-01T20:09:15.915Z,24.10
2019-02-01T20:11:45.889Z,21.13
2019-02-01T20:14:15.837Z,19.03
2019-02-01T20:16:45.741Z,21.10
2019-02-01T20:19:15.754Z,19.93
2019-02-01T20:21:45.643Z,21.10
2019-02-01T20:24:15.634Z,19.50
2019-02-01T20:26:45.529Z,21.10
2019-02-01T20:29:15.479Z,18.62
2019-02-01T20:31:45.490Z,19.20
2019-02-01T20:34:15.412Z,16.93
2019-02-01T20:36:45.371Z,19.60
2019-02-01T20:39:15.403Z,15.80
2019-02-01T20:41:46.097Z,18.37
2019-02-01T20:44:16.013Z,18.30
2019-02-01T20:46:45.971Z,15.70
2019-02-01T20:49:16.051Z,17.93
2019-02-01T20:51:46.108Z,17.13
2019-02-01T20:54:16.488Z,17.80
2019-02-01T20:56:46.653Z,17.03
2019-02-01T20:59:16.563Z,17.00
2019-02-01T21:01:46.432Z,18.13
2019-02-01T21:04:16.436Z,17.17
2019-02-01T21:06:46.327Z,17.80
2019-02-01T21:09:16.315Z,17.47
2019-02-01T21:11:46.217Z,16.60
2019-02-01T21:14:16.138Z,15.93
2019-02-01T21:16:46.034Z,18.85
2019-02-01T21:19:16.003Z,18.53
2019-02-01T21:21:45.985Z,21.00
2019-02-01T21:24:16.078Z,19.17
2019-02-01T21:26:46.278Z,18.07
2019-02-01T21:29:16.267Z,19.23
2019-02-01T21:31:46.353Z,18.47
2019-02-01T21:34:16.581Z,17.63
2019-02-01T21:36:46.528Z,19.13
2019-02-01T21:39:16.510Z,18.70
2019-02-01T21:41:46.419Z,19.50
2019-02-01T21:44:16.700Z,19.17
2019-02-01T21:46:46.643Z,20.30
2019-02-01T21:49:16.563Z,17.73
2019-02-01T21:51:46.457Z,19.57
2019-02-01T21:54:16.472Z,20.07
2019-02-01T21:56:48.282Z,19.87
2019-02-01T21:59:18.287Z,20.60
2019-02-01T22:01:48.340Z,18.70
2019-02-01T22:04:18.250Z,19.82
2019-02-01T22:06:48.445Z,17.90
2019-02-01T22:09:18.888Z,18.80
2019-02-01T22:11:48.797Z,20.20
2019-02-01T22:14:18.797Z,19.53
2019-02-01T22:16:48.725Z,19.23
2019-02-01T22:19:18.618Z,22.48
2019-02-01T22:21:48.505Z,20.23
2019-02-01T22:24:18.417Z,18.37
2019-02-01T22:26:55.023Z,18.67
2019-02-01T22:29:20.120Z,21.33
2019-02-01T22:31:50.185Z,17.48
2019-02-01T22:34:20.217Z,18.63
2019-02-01T22:36:50.147Z,20.17
2019-02-01T22:39:20.089Z,18.57
2019-02-01T22:41:50.001Z,20.10
2019-02-01T22:44:20.019Z,18.50
2019-02-01T22:46:49.969Z,18.30
2019-02-01T22:49:19.900Z,20.47
2019-02-01T22:51:49.879Z,18.40
2019-02-01T22:54:19.791Z,20.27
2019-02-01T22:56:49.689Z,17.90
2019-02-01T22:59:19.604Z,18.67
2019-02-01T23:01:54.193Z,20.30
2019-02-01T23:04:49.835Z,20.33
2019-02-01T23:07:20.205Z,17.07
2019-02-01T23:09:50.284Z,18.45
2019-02-01T23:12:20.638Z,17.70
2019-02-01T23:14:50.739Z,17.20
2019-02-01T23:17:20.827Z,18.40
2019-02-01T23:19:52.822Z,20.20
2019-02-01T23:22:22.852Z,21.17
2019-02-01T23:24:52.808Z,20.95
2019-02-01T23:27:23.188Z,19.10
2019-02-01T23:29:53.222Z,17.57
2019-02-01T23:32:23.380Z,18.67
2019-02-01T23:34:53.275Z,20.37
2019-02-01T23:37:23.399Z,19.00
2019-02-01T23:39:53.557Z,18.83
2019-02-01T23:42:23.658Z,19.70
2019-02-01T23:44:53.745Z,18.67
2019-02-01T23:47:23.790Z,18.83
2019-02-01T23:49:53.691Z,18.90
2019-02-01T23:52:23.720Z,19.53
2019-02-01T23:54:53.745Z,17.43
2019-02-01T23:57:29.802Z,18.67
2019-02-01T23:59:55.901Z,20.23
